Latest Weather Observations for Sydney Harbour

IDN60801

Issued at 7:32 am EST Saturday 22 September 2018 (issued every 10 minutes, with the page automatically refreshed every 10 minutes)

About weather observations | Map of weather stations | Latest weather observations for NSW | Other Formats
Station Details ID: 066196 Name: WEDDING CAKE WEST Lat: -33.84 Lon: 151.26 Height: 6.0 m
Data from the previous 72 hours. | See also: Recent months at Sydney Harbour
Date/Time
EST
Temp
°C
App
Temp
°C
Dew
Point
°C
Rel
Hum
%
Delta-T
°C
Wind Press
QNH
hPa
Press
MSL
hPa
Rain since
9am
mm
Dir  Spd
km/h
Gust
km/h
Spd
kts
Gust
kts
22/07:30am 13.2 - - - - NW 7 11 4 6 - - -
22/07:00am 12.8 - - - - NW 9 13 5 7 - - -
22/06:30am 13.2 - - - - NW 4 11 2 6 - - -
22/06:00am 13.0 - - - - CALM 0 0 0 0 - - -
22/05:30am 12.9 - - - - CALM 0 6 0 3 - - -
22/05:00am 13.2 - - - - N 11 11 6 6 - - -
22/04:30am 13.4 - - - - CALM 0 0 0 0 - - -
22/04:00am 13.5 - - - - N 7 11 4 6 - - -
22/03:30am 13.2 - - - - N 7 9 4 5 - - -
22/03:00am 13.1 - - - - N 9 9 5 5 - - -
22/02:30am 13.4 - - - - CALM 0 0 0 0 - - -
22/02:00am 13.4 - - - - CALM 0 0 0 0 - - -
22/01:30am 13.5 - - - - CALM 0 0 0 0 - - -
22/01:00am 13.7 - - - - CALM 0 0 0 0 - - -
22/12:30am 13.9 - - - - CALM 0 0 0 0 - - -
22/12:00am 14.1 - - - - CALM 0 0 0 0 - - -
 
Date/Time
EST
Temp
°C
App
Temp
°C
Dew
Point
°C
Rel
Hum
%
Delta-T
°C
Wind Press
QNH
hPa
Press
MSL
hPa
Rain since
9am
mm
Dir  Spd
km/h
Gust
km/h
Spd
kts
Gust
kts
21/11:30pm 14.5 - - - - CALM 0 0 0 0 - - -
21/11:00pm 14.7 - - - - CALM 0 0 0 0 - - -
21/10:30pm 15.0 - - - - N 7 9 4 5 - - -
21/10:00pm 15.4 - - - - - 6 7 3 4 - - -
21/09:30pm 16.4 - - - - N 19 24 10 13 - - -
21/09:00pm 16.6 - - - - NNE 24 28 13 15 - - -
21/08:30pm 16.5 - - - - NNE 20 26 11 14 - - -
21/08:00pm 16.5 - - - - NE 20 26 11 14 - - -
21/07:30pm 16.5 - - - - NE 24 30 13 16 - - -
21/07:00pm 16.4 - - - - NE 22 30 12 16 - - -
21/06:30pm 16.6 - - - - NE 24 28 13 15 - - -
21/06:00pm 16.6 - - - - NE 26 30 14 16 - - -
21/05:30pm 16.7 - - - - NE 28 33 15 18 - - -
21/05:00pm 16.7 - - - - NE 26 30 14 16 - - -
21/04:30pm 16.7 - - - - NE 24 30 13 16 - - -
21/04:00pm 16.6 - - - - NE 22 28 12 15 - - -
21/03:30pm 16.6 - - - - NE 22 26 12 14 - - -
21/03:00pm 16.5 - - - - NE 24 28 13 15 - - -
21/02:30pm 16.5 - - - - NE 22 26 12 14 - - -
21/02:00pm 16.4 - - - - ENE 20 24 11 13 - - -
21/01:30pm 16.5 - - - - ENE 17 20 9 11 - - -
21/01:00pm 16.7 - - - - ENE 15 19 8 10 - - -
21/12:30pm 16.8 - - - - ENE 15 20 8 11 - - -
21/12:00pm 16.3 - - - - ENE 17 20 9 11 - - -
21/11:30am 15.7 - - - - ENE 19 20 10 11 - - -
21/11:00am 15.5 - - - - ENE 17 19 9 10 - - -
21/10:30am 17.3 - - - - CALM 0 0 0 0 - - -
21/10:00am 14.6 - - - - SW 11 15 6 8 - - -
21/09:30am 13.5 - - - - SW 11 15 6 8 - - -
21/09:00am 12.8 - - - - SW 15 17 8 9 - - -
21/08:30am 12.1 - - - - WSW 9 13 5 7 - - -
21/08:00am 11.3 - - - - WSW 15 17 8 9 - - -
21/07:30am 11.0 - - - - WSW 13 15 7 8 - - -
21/07:00am 10.7 - - - - WSW 9 11 5 6 - - -
21/06:30am 10.5 - - - - WSW 6 11 3 6 - - -
21/06:00am 10.2 - - - - WSW 9 11 5 6 - - -
21/05:30am 10.5 - - - - WSW 7 11 4 6 - - -
21/05:00am 10.6 - - - - WSW 9 13 5 7 - - -
21/04:30am 10.6 - - - - WSW 7 11 4 6 - - -
21/04:00am 10.7 - - - - WSW 15 19 8 10 - - -
21/03:30am 11.0 - - - - W 6 9 3 5 - - -
21/03:00am 11.3 - - - - W 2 9 1 5 - - -
21/02:30am 11.2 - - - - W 11 15 6 8 - - -
21/02:00am 11.4 - - - - W 6 11 3 6 - - -
21/01:30am 11.7 - - - - W 13 17 7 9 - - -
21/01:00am 11.9 - - - - W 17 20 9 11 - - -
21/12:30am 12.1 - - - - W 19 22 10 12 - - -
21/12:00am 12.3 - - - - W 15 17 8 9 - - -
 
Date/Time
EST
Temp
°C
App
Temp
°C
Dew
Point
°C
Rel
Hum
%
Delta-T
°C
Wind Press
QNH
hPa
Press
MSL
hPa
Rain since
9am
mm
Dir  Spd
km/h
Gust
km/h
Spd
kts
Gust
kts
20/11:30pm 12.2 - - - - W 13 15 7 8 - - -
20/11:00pm 12.7 - - - - W 17 19 9 10 - - -
20/10:30pm 13.2 - - - - W 15 17 8 9 - - -
20/10:00pm 13.0 - - - - W 13 17 7 9 - - -
20/09:30pm 13.7 - - - - SSE 7 9 4 5 - - -
20/09:00pm 13.9 - - - - SSE 9 9 5 5 - - -
20/08:30pm 14.0 - - - - SSE 7 9 4 5 - - -
20/08:00pm 14.3 - - - - SSE 7 9 4 5 - - -
20/07:30pm 14.6 - - - - SSE 7 11 4 6 - - -
20/07:00pm 14.5 - - - - SSE 11 15 6 8 - - -
20/06:30pm 14.7 - - - - SSE 13 17 7 9 - - -
20/06:00pm 14.7 - - - - SSE 11 17 6 9 - - -
20/05:30pm 15.2 - - - - SSE 13 17 7 9 - - -
20/05:00pm 15.6 - - - - SSE 13 19 7 10 - - -
20/04:30pm 15.8 - - - - SE 13 17 7 9 - - -
20/04:00pm 15.7 - - - - SE 15 20 8 11 - - -
20/03:30pm 15.6 - - - - SE 19 24 10 13 - - -
20/03:00pm 15.7 - - - - SE 19 28 10 15 - - -
20/02:30pm 15.3 - - - - SSE 20 26 11 14 - - -
20/02:00pm 15.0 - - - - SSE 20 28 11 15 - - -
20/01:30pm 14.7 - - - - S 24 32 13 17 - - -
20/01:00pm 14.6 - - - - S 20 30 11 16 - - -
20/12:30pm 13.8 - - - - W 9 17 5 9 - - -
20/12:00pm 13.1 - - - - NW 9 13 5 7 - - -
20/11:30am 12.3 - - - - S 6 11 3 6 - - -
20/11:00am 12.3 - - - - CALM 0 0 0 0 - - -
20/10:30am 11.8 - - - - S 13 20 7 11 - - -
20/10:00am 11.7 - - - - W 15 20 8 11 - - -
20/09:30am 11.8 - - - - W 20 26 11 14 - - -
20/09:00am 12.0 - - - - SW 24 30 13 16 - - -
20/08:30am 12.3 - - - - SW 26 32 14 17 - - -
20/08:00am 11.8 - - - - SW 28 33 15 18 - - -
20/07:30am 12.5 - - - - WSW 24 30 13 16 - - -
20/07:00am 12.4 - - - - NNE 11 13 6 7 - - -
20/06:30am 12.1 - - - - CALM 0 0 0 0 - - -
20/06:00am 12.0 - - - - E 9 19 5 10 - - -
20/05:30am 11.9 - - - - SE 11 17 6 9 - - -
20/05:00am 11.9 - - - - S 19 30 10 16 - - -
20/04:30am 12.4 - - - - SSW 24 30 13 16 - - -
20/04:00am 12.6 - - - - SSW 20 26 11 14 - - -
20/03:30am 12.8 - - - - SSW 24 32 13 17 - - -
20/03:00am 12.9 - - - - SSW 30 37 16 20 - - -
20/02:30am 13.7 - - - - SW 24 30 13 16 - - -
20/02:00am 14.1 - - - - SSW 22 26 12 14 - - -
20/01:30am 14.2 - - - - SW 28 32 15 17 - - -
20/01:00am 14.6 - - - - SW 26 30 14 16 - - -
20/12:30am 15.5 - - - - SSW 19 24 10 13 - - -
20/12:00am 15.2 - - - - SSW 20 24 11 13 - - -
 
Date/Time
EST
Temp
°C
App
Temp
°C
Dew
Point
°C
Rel
Hum
%
Delta-T
°C
Wind Press
QNH
hPa
Press
MSL
hPa
Rain since
9am
mm
Dir  Spd
km/h
Gust
km/h
Spd
kts
Gust
kts
19/11:30pm 15.2 - - - - SSW 22 30 12 16 - - -
19/11:00pm 15.0 - - - - SSW 28 39 15 21 - - -
19/10:30pm 15.3 - - - - SSW 28 33 15 18 - - -
19/10:00pm 15.6 - - - - SSW 33 41 18 22 - - -
19/09:30pm 15.8 - - - - SSW 32 39 17 21 - - -
19/09:00pm 15.8 - - - - S 33 43 18 23 - - -
19/08:30pm 16.0 - - - - S 35 48 19 26 - - -
19/08:06pm 16.1 - - - - S 41 59 22 32 - - -
19/08:00pm 16.2 - - - - S 43 56 23 30 - - -
19/07:33pm 16.4 - - - - SSW 48 67 26 36 - - -
19/07:30pm 16.6 - - - - SSW 50 67 27 36 - - -
19/07:00pm 19.3 - - - - SSW 39 57 21 31 - - -
19/06:58pm 19.3 - - - - SSW 39 57 21 31 - - -
19/06:49pm 22.0 - - - - SW 37 50 20 27 - - -
19/06:30pm 22.8 - - - - WSW 24 32 13 17 - - -
19/06:00pm 23.3 - - - - WSW 28 39 15 21 - - -
19/05:30pm 24.0 - - - - W 33 48 18 26 - - -
19/05:15pm 24.5 - - - - W 35 54 19 29 - - -
19/05:00pm 24.4 - - - - W 33 44 18 24 - - -
19/04:30pm 25.3 - - - - W 37 56 20 30 - - -
19/04:21pm 25.6 - - - - W 37 56 20 30 - - -
19/04:00pm 26.1 - - - - W 33 41 18 22 - - -
19/03:41pm 27.0 - - - - WNW 28 48 15 26 - - -
19/03:30pm 27.6 - - - - WNW 24 39 13 21 - - -
19/03:00pm 27.6 - - - - WNW 30 52 16 28 - - -
19/02:30pm 27.6 - - - - NW 32 57 17 31 - - -
19/02:02pm 27.2 - - - - NNW 30 57 16 31 - - -
19/02:00pm 27.1 - - - - NNW 30 44 16 24 - - -
19/01:32pm 26.9 - - - - NNW 28 46 15 25 - - -
19/01:30pm 27.0 - - - - NNW 30 46 16 25 - - -
19/01:22pm 27.3 - - - - NNW 28 50 15 27 - - -
19/01:08pm 27.5 - - - - NNW 37 59 20 32 - - -
19/01:00pm 26.8 - - - - N 44 76 24 41 - - -
19/12:58pm 26.7 - - - - N 44 76 24 41 - - -
19/12:30pm 27.2 - - - - NNW 30 54 16 29 - - -
19/12:17pm 26.7 - - - - NNW 28 46 15 25 - - -
19/12:00pm 23.0 - - - - NNE 22 41 12 22 - - -
19/11:30am 22.5 - - - - NNE 22 30 12 16 - - -
19/11:00am 21.0 - - - - NE 17 22 9 12 - - -
19/10:30am 19.7 - - - - SW 4 13 2 7 - - -
19/10:00am 19.2 - - - - SW 2 7 1 4 - - -
19/09:30am 19.0 - - - - WSW 13 17 7 9 - - -
19/09:00am 18.5 - - - - N 15 17 8 9 - - -
19/08:30am 17.7 - - - - CALM 0 0 0 0 - - -
19/08:00am 16.6 - - - - CALM 0 2 0 1 - - -

Other Formats:

Comma delimited format used in spreadsheet applications
http://www.bom.gov.au/fwo/IDN60801/IDN60801.95766.axf

JavaScript Object Notation format (JSON) in row-major order
http://www.bom.gov.au/fwo/IDN60801/IDN60801.95766.json